sensor_id;sensor_type;location;lat;lon;timestamp;P1;durP1;ratioP1;P2;durP2;ratioP2
75939;SDS011;75809;44.872;20.642;2024-03-22T00:00:02;37.85;;;17.95;;
75939;SDS011;75809;44.872;20.642;2024-03-22T00:02:28;42.10;;;20.15;;
75939;SDS011;75809;44.872;20.642;2024-03-22T00:04:53;45.83;;;21.95;;
75939;SDS011;75809;44.872;20.642;2024-03-22T00:07:19;48.45;;;21.73;;
75939;SDS011;75809;44.872;20.642;2024-03-22T00:09:44;39.83;;;18.40;;
75939;SDS011;75809;44.872;20.642;2024-03-22T00:12:10;39.58;;;16.15;;
75939;SDS011;75809;44.872;20.642;2024-03-22T00:14:35;32.67;;;15.32;;
75939;SDS011;75809;44.872;20.642;2024-03-22T00:17:01;38.10;;;17.08;;
75939;SDS011;75809;44.872;20.642;2024-03-22T00:19:26;38.47;;;16.40;;
75939;SDS011;75809;44.872;20.642;2024-03-22T00:21:52;37.92;;;18.92;;
75939;SDS011;75809;44.872;20.642;2024-03-22T00:24:17;37.30;;;16.42;;
75939;SDS011;75809;44.872;20.642;2024-03-22T00:26:43;30.33;;;15.45;;
75939;SDS011;75809;44.872;20.642;2024-03-22T00:29:08;30.05;;;13.52;;
75939;SDS011;75809;44.872;20.642;2024-03-22T00:31:34;27.85;;;12.43;;
75939;SDS011;75809;44.872;20.642;2024-03-22T00:33:59;33.28;;;15.00;;
75939;SDS011;75809;44.872;20.642;2024-03-22T00:36:24;34.47;;;14.52;;
75939;SDS011;75809;44.872;20.642;2024-03-22T00:38:50;29.23;;;11.70;;
75939;SDS011;75809;44.872;20.642;2024-03-22T00:41:15;29.48;;;13.18;;
75939;SDS011;75809;44.872;20.642;2024-03-22T00:43:41;39.15;;;18.17;;
75939;SDS011;75809;44.872;20.642;2024-03-22T00:46:07;50.22;;;21.65;;
75939;SDS011;75809;44.872;20.642;2024-03-22T00:48:32;53.10;;;26.40;;
75939;SDS011;75809;44.872;20.642;2024-03-22T00:51:00;46.17;;;21.73;;
75939;SDS011;75809;44.872;20.642;2024-03-22T00:53:25;62.25;;;27.30;;
75939;SDS011;75809;44.872;20.642;2024-03-22T00:55:51;54.95;;;24.27;;
75939;SDS011;75809;44.872;20.642;2024-03-22T00:58:17;54.38;;;24.08;;
75939;SDS011;75809;44.872;20.642;2024-03-22T01:00:43;45.17;;;23.63;;
75939;SDS011;75809;44.872;20.642;2024-03-22T01:03:09;44.90;;;23.25;;
75939;SDS011;75809;44.872;20.642;2024-03-22T01:05:35;54.53;;;25.70;;
75939;SDS011;75809;44.872;20.642;2024-03-22T01:08:01;58.28;;;27.88;;
75939;SDS011;75809;44.872;20.642;2024-03-22T01:10:26;53.95;;;26.73;;
75939;SDS011;75809;44.872;20.642;2024-03-22T01:12:52;62.58;;;30.33;;
75939;SDS011;75809;44.872;20.642;2024-03-22T01:15:17;61.20;;;29.38;;
75939;SDS011;75809;44.872;20.642;2024-03-22T01:17:43;60.35;;;30.65;;
75939;SDS011;75809;44.872;20.642;2024-03-22T01:20:09;60.42;;;31.35;;
75939;SDS011;75809;44.872;20.642;2024-03-22T01:22:35;60.55;;;29.17;;
75939;SDS011;75809;44.872;20.642;2024-03-22T01:25:00;55.88;;;29.30;;
75939;SDS011;75809;44.872;20.642;2024-03-22T01:27:26;56.03;;;28.83;;
75939;SDS011;75809;44.872;20.642;2024-03-22T01:29:51;52.15;;;27.92;;
75939;SDS011;75809;44.872;20.642;2024-03-22T01:32:16;51.72;;;26.90;;
75939;SDS011;75809;44.872;20.642;2024-03-22T01:34:42;46.70;;;24.88;;
75939;SDS011;75809;44.872;20.642;2024-03-22T01:37:07;54.05;;;24.27;;
75939;SDS011;75809;44.872;20.642;2024-03-22T01:39:33;40.70;;;18.23;;
75939;SDS011;75809;44.872;20.642;2024-03-22T01:41:58;35.40;;;16.55;;
75939;SDS011;75809;44.872;20.642;2024-03-22T01:44:27;38.95;;;17.60;;
75939;SDS011;75809;44.872;20.642;2024-03-22T01:46:53;43.17;;;20.52;;
75939;SDS011;75809;44.872;20.642;2024-03-22T01:49:19;41.00;;;20.83;;
75939;SDS011;75809;44.872;20.642;2024-03-22T01:51:46;48.05;;;20.83;;
75939;SDS011;75809;44.872;20.642;2024-03-22T01:54:12;43.55;;;20.50;;
75939;SDS011;75809;44.872;20.642;2024-03-22T01:56:37;47.15;;;23.00;;
75939;SDS011;75809;44.872;20.642;2024-03-22T01:59:04;53.05;;;24.52;;
75939;SDS011;75809;44.872;20.642;2024-03-22T02:01:30;46.88;;;22.13;;
75939;SDS011;75809;44.872;20.642;2024-03-22T02:03:56;36.97;;;19.05;;
75939;SDS011;75809;44.872;20.642;2024-03-22T02:06:22;43.42;;;20.85;;
75939;SDS011;75809;44.872;20.642;2024-03-22T02:08:47;45.45;;;22.33;;
75939;SDS011;75809;44.872;20.642;2024-03-22T02:11:13;47.80;;;20.20;;
75939;SDS011;75809;44.872;20.642;2024-03-22T02:13:38;39.85;;;19.48;;
75939;SDS011;75809;44.872;20.642;2024-03-22T02:16:04;40.08;;;19.98;;
75939;SDS011;75809;44.872;20.642;2024-03-22T02:18:30;44.75;;;20.77;;
75939;SDS011;75809;44.872;20.642;2024-03-22T02:20:56;46.28;;;22.58;;
75939;SDS011;75809;44.872;20.642;2024-03-22T02:23:43;46.08;;;24.35;;
75939;SDS011;75809;44.872;20.642;2024-03-22T02:26:08;42.58;;;20.83;;
75939;SDS011;75809;44.872;20.642;2024-03-22T02:28:34;39.75;;;21.90;;
75939;SDS011;75809;44.872;20.642;2024-03-22T02:31:01;42.40;;;20.88;;
75939;SDS011;75809;44.872;20.642;2024-03-22T02:33:27;46.83;;;20.65;;
75939;SDS011;75809;44.872;20.642;2024-03-22T02:35:53;48.80;;;23.05;;
75939;SDS011;75809;44.872;20.642;2024-03-22T02:38:18;47.53;;;22.67;;
75939;SDS011;75809;44.872;20.642;2024-03-22T02:40:44;51.17;;;26.13;;
75939;SDS011;75809;44.872;20.642;2024-03-22T02:43:11;48.13;;;24.83;;
75939;SDS011;75809;44.872;20.642;2024-03-22T02:45:36;51.60;;;25.13;;
75939;SDS011;75809;44.872;20.642;2024-03-22T02:48:02;55.13;;;26.40;;
75939;SDS011;75809;44.872;20.642;2024-03-22T02:50:31;48.30;;;23.83;;
75939;SDS011;75809;44.872;20.642;2024-03-22T02:53:01;41.97;;;22.42;;
75939;SDS011;75809;44.872;20.642;2024-03-22T02:55:27;50.05;;;23.15;;
75939;SDS011;75809;44.872;20.642;2024-03-22T02:57:53;45.63;;;24.58;;
75939;SDS011;75809;44.872;20.642;2024-03-22T03:00:18;54.88;;;25.65;;
75939;SDS011;75809;44.872;20.642;2024-03-22T03:02:45;51.50;;;26.02;;
75939;SDS011;75809;44.872;20.642;2024-03-22T03:05:10;50.70;;;25.17;;
75939;SDS011;75809;44.872;20.642;2024-03-22T03:07:36;46.95;;;23.48;;
75939;SDS011;75809;44.872;20.642;2024-03-22T03:10:02;44.40;;;24.58;;
75939;SDS011;75809;44.872;20.642;2024-03-22T03:12:27;47.97;;;22.95;;
75939;SDS011;75809;44.872;20.642;2024-03-22T03:14:53;45.13;;;23.50;;
75939;SDS011;75809;44.872;20.642;2024-03-22T03:17:18;48.60;;;24.35;;
75939;SDS011;75809;44.872;20.642;2024-03-22T03:19:44;53.75;;;23.75;;
75939;SDS011;75809;44.872;20.642;2024-03-22T03:22:10;49.65;;;25.42;;
75939;SDS011;75809;44.872;20.642;2024-03-22T03:24:35;47.60;;;24.83;;
75939;SDS011;75809;44.872;20.642;2024-03-22T03:27:01;50.55;;;25.75;;
75939;SDS011;75809;44.872;20.642;2024-03-22T03:29:27;45.20;;;22.05;;
75939;SDS011;75809;44.872;20.642;2024-03-22T03:31:53;53.58;;;25.30;;
75939;SDS011;75809;44.872;20.642;2024-03-22T03:34:18;50.72;;;25.17;;
75939;SDS011;75809;44.872;20.642;2024-03-22T03:36:45;50.47;;;23.83;;
75939;SDS011;75809;44.872;20.642;2024-03-22T03:39:12;54.40;;;25.08;;
75939;SDS011;75809;44.872;20.642;2024-03-22T03:41:38;51.00;;;24.67;;
75939;SDS011;75809;44.872;20.642;2024-03-22T03:44:04;48.83;;;24.58;;
75939;SDS011;75809;44.872;20.642;2024-03-22T03:46:29;49.63;;;25.10;;
75939;SDS011;75809;44.872;20.642;2024-03-22T03:48:55;51.30;;;25.10;;
75939;SDS011;75809;44.872;20.642;2024-03-22T03:51:20;49.65;;;25.27;;
75939;SDS011;75809;44.872;20.642;2024-03-22T03:53:46;50.47;;;24.58;;
75939;SDS011;75809;44.872;20.642;2024-03-22T03:56:11;51.60;;;26.42;;
75939;SDS011;75809;44.872;20.642;2024-03-22T03:58:37;48.00;;;25.88;;
75939;SDS011;75809;44.872;20.642;2024-03-22T04:01:06;51.13;;;24.30;;
75939;SDS011;75809;44.872;20.642;2024-03-22T04:03:32;52.72;;;27.27;;
75939;SDS011;75809;44.872;20.642;2024-03-22T04:05:57;53.63;;;26.88;;
75939;SDS011;75809;44.872;20.642;2024-03-22T04:08:26;63.05;;;29.50;;
75939;SDS011;75809;44.872;20.642;2024-03-22T04:10:55;55.30;;;28.75;;
75939;SDS011;75809;44.872;20.642;2024-03-22T04:15:47;53.05;;;27.00;;
75939;SDS011;75809;44.872;20.642;2024-03-22T04:18:12;59.72;;;27.50;;
75939;SDS011;75809;44.872;20.642;2024-03-22T04:20:38;58.95;;;27.98;;
75939;SDS011;75809;44.872;20.642;2024-03-22T04:23:03;63.17;;;26.98;;
75939;SDS011;75809;44.872;20.642;2024-03-22T04:25:29;52.40;;;23.75;;
75939;SDS011;75809;44.872;20.642;2024-03-22T04:27:54;48.15;;;25.70;;
75939;SDS011;75809;44.872;20.642;2024-03-22T04:30:20;52.40;;;24.23;;
75939;SDS011;75809;44.872;20.642;2024-03-22T04:32:46;55.30;;;27.30;;
75939;SDS011;75809;44.872;20.642;2024-03-22T04:35:12;50.10;;;25.70;;
75939;SDS011;75809;44.872;20.642;2024-03-22T04:37:39;50.95;;;26.02;;
75939;SDS011;75809;44.872;20.642;2024-03-22T04:40:05;53.45;;;25.20;;
75939;SDS011;75809;44.872;20.642;2024-03-22T04:42:31;51.63;;;25.15;;
75939;SDS011;75809;44.872;20.642;2024-03-22T04:44:56;47.85;;;24.05;;
75939;SDS011;75809;44.872;20.642;2024-03-22T04:47:22;48.70;;;23.75;;
75939;SDS011;75809;44.872;20.642;2024-03-22T04:49:48;57.72;;;24.80;;
75939;SDS011;75809;44.872;20.642;2024-03-22T04:52:13;50.00;;;25.33;;
75939;SDS011;75809;44.872;20.642;2024-03-22T04:54:39;63.90;;;28.42;;
75939;SDS011;75809;44.872;20.642;2024-03-22T04:57:04;54.28;;;24.50;;
75939;SDS011;75809;44.872;20.642;2024-03-22T04:59:30;50.83;;;24.88;;
75939;SDS011;75809;44.872;20.642;2024-03-22T05:01:55;51.80;;;25.77;;
75939;SDS011;75809;44.872;20.642;2024-03-22T05:04:21;46.95;;;25.92;;
75939;SDS011;75809;44.872;20.642;2024-03-22T05:06:46;51.30;;;24.48;;
75939;SDS011;75809;44.872;20.642;2024-03-22T05:09:12;50.78;;;24.73;;
75939;SDS011;75809;44.872;20.642;2024-03-22T05:11:37;47.97;;;23.23;;
75939;SDS011;75809;44.872;20.642;2024-03-22T05:14:03;46.83;;;23.27;;
75939;SDS011;75809;44.872;20.642;2024-03-22T05:16:28;47.65;;;25.30;;
75939;SDS011;75809;44.872;20.642;2024-03-22T05:18:54;52.55;;;24.70;;
75939;SDS011;75809;44.872;20.642;2024-03-22T05:21:19;57.65;;;24.73;;
75939;SDS011;75809;44.872;20.642;2024-03-22T05:23:45;55.97;;;27.45;;
75939;SDS011;75809;44.872;20.642;2024-03-22T05:26:11;56.15;;;28.15;;
75939;SDS011;75809;44.872;20.642;2024-03-22T05:28:36;59.20;;;28.70;;
75939;SDS011;75809;44.872;20.642;2024-03-22T05:31:01;60.47;;;27.05;;
75939;SDS011;75809;44.872;20.642;2024-03-22T05:33:28;61.60;;;28.90;;
75939;SDS011;75809;44.872;20.642;2024-03-22T05:35:53;54.70;;;27.65;;
75939;SDS011;75809;44.872;20.642;2024-03-22T05:38:19;55.17;;;26.83;;
75939;SDS011;75809;44.872;20.642;2024-03-22T05:40:44;53.58;;;26.38;;
75939;SDS011;75809;44.872;20.642;2024-03-22T05:43:12;47.58;;;24.73;;
75939;SDS011;75809;44.872;20.642;2024-03-22T05:45:38;44.20;;;21.80;;
75939;SDS011;75809;44.872;20.642;2024-03-22T05:48:04;48.55;;;24.67;;
75939;SDS011;75809;44.872;20.642;2024-03-22T05:50:29;46.30;;;21.48;;
75939;SDS011;75809;44.872;20.642;2024-03-22T05:52:55;47.70;;;24.20;;
75939;SDS011;75809;44.872;20.642;2024-03-22T05:55:20;45.35;;;23.65;;
75939;SDS011;75809;44.872;20.642;2024-03-22T05:57:46;43.95;;;21.63;;
75939;SDS011;75809;44.872;20.642;2024-03-22T06:00:11;48.10;;;23.90;;
75939;SDS011;75809;44.872;20.642;2024-03-22T06:02:38;52.97;;;26.27;;
75939;SDS011;75809;44.872;20.642;2024-03-22T06:05:04;45.28;;;22.58;;
75939;SDS011;75809;44.872;20.642;2024-03-22T06:07:30;44.28;;;23.77;;
75939;SDS011;75809;44.872;20.642;2024-03-22T06:10:00;54.63;;;27.08;;
75939;SDS011;75809;44.872;20.642;2024-03-22T06:12:26;54.20;;;26.58;;
75939;SDS011;75809;44.872;20.642;2024-03-22T06:14:51;54.42;;;27.25;;
75939;SDS011;75809;44.872;20.642;2024-03-22T06:17:17;51.42;;;26.77;;
75939;SDS011;75809;44.872;20.642;2024-03-22T06:19:42;56.78;;;28.38;;
75939;SDS011;75809;44.872;20.642;2024-03-22T06:22:07;57.03;;;29.38;;
75939;SDS011;75809;44.872;20.642;2024-03-22T06:24:33;55.75;;;29.05;;
75939;SDS011;75809;44.872;20.642;2024-03-22T06:26:58;60.25;;;31.23;;
75939;SDS011;75809;44.872;20.642;2024-03-22T06:29:25;63.45;;;29.98;;
75939;SDS011;75809;44.872;20.642;2024-03-22T06:31:51;59.90;;;32.05;;
75939;SDS011;75809;44.872;20.642;2024-03-22T06:34:17;58.42;;;30.33;;
75939;SDS011;75809;44.872;20.642;2024-03-22T06:36:43;59.28;;;28.50;;
75939;SDS011;75809;44.872;20.642;2024-03-22T06:39:08;61.35;;;30.50;;
75939;SDS011;75809;44.872;20.642;2024-03-22T06:41:35;54.25;;;28.42;;
75939;SDS011;75809;44.872;20.642;2024-03-22T06:44:00;49.47;;;25.40;;
75939;SDS011;75809;44.872;20.642;2024-03-22T06:46:26;44.97;;;23.83;;
75939;SDS011;75809;44.872;20.642;2024-03-22T06:48:52;46.17;;;24.95;;
75939;SDS011;75809;44.872;20.642;2024-03-22T06:51:18;41.72;;;22.67;;
75939;SDS011;75809;44.872;20.642;2024-03-22T06:53:43;39.58;;;21.63;;
75939;SDS011;75809;44.872;20.642;2024-03-22T06:56:11;42.60;;;21.63;;
75939;SDS011;75809;44.872;20.642;2024-03-22T06:58:39;37.80;;;18.85;;
75939;SDS011;75809;44.872;20.642;2024-03-22T07:01:05;37.47;;;17.50;;
75939;SDS011;75809;44.872;20.642;2024-03-22T07:03:30;36.67;;;19.20;;
75939;SDS011;75809;44.872;20.642;2024-03-22T07:05:56;39.35;;;19.58;;
75939;SDS011;75809;44.872;20.642;2024-03-22T07:08:22;40.85;;;19.90;;
75939;SDS011;75809;44.872;20.642;2024-03-22T07:10:49;40.95;;;21.02;;
75939;SDS011;75809;44.872;20.642;2024-03-22T07:13:15;43.15;;;21.63;;
75939;SDS011;75809;44.872;20.642;2024-03-22T07:15:41;40.45;;;22.50;;
75939;SDS011;75809;44.872;20.642;2024-03-22T07:18:07;40.40;;;22.60;;
75939;SDS011;75809;44.872;20.642;2024-03-22T07:20:33;42.53;;;22.63;;
75939;SDS011;75809;44.872;20.642;2024-03-22T07:22:58;43.08;;;22.70;;
75939;SDS011;75809;44.872;20.642;2024-03-22T07:25:24;38.25;;;19.55;;
75939;SDS011;75809;44.872;20.642;2024-03-22T07:27:49;48.50;;;21.13;;
75939;SDS011;75809;44.872;20.642;2024-03-22T07:30:15;35.78;;;18.83;;
75939;SDS011;75809;44.872;20.642;2024-03-22T07:32:40;36.17;;;18.40;;
75939;SDS011;75809;44.872;20.642;2024-03-22T07:35:06;39.72;;;19.45;;
75939;SDS011;75809;44.872;20.642;2024-03-22T07:37:34;37.95;;;18.75;;
75939;SDS011;75809;44.872;20.642;2024-03-22T07:40:01;33.97;;;18.73;;
75939;SDS011;75809;44.872;20.642;2024-03-22T07:42:27;37.65;;;20.40;;
75939;SDS011;75809;44.872;20.642;2024-03-22T07:44:53;43.40;;;21.15;;
75939;SDS011;75809;44.872;20.642;2024-03-22T07:47:18;37.63;;;20.30;;
75939;SDS011;75809;44.872;20.642;2024-03-22T07:49:44;39.97;;;21.38;;
75939;SDS011;75809;44.872;20.642;2024-03-22T07:52:10;39.92;;;22.60;;
75939;SDS011;75809;44.872;20.642;2024-03-22T07:54:35;37.00;;;19.48;;
75939;SDS011;75809;44.872;20.642;2024-03-22T07:57:01;38.45;;;19.92;;
75939;SDS011;75809;44.872;20.642;2024-03-22T07:59:27;35.97;;;19.10;;
75939;SDS011;75809;44.872;20.642;2024-03-22T08:01:53;37.03;;;18.52;;
75939;SDS011;75809;44.872;20.642;2024-03-22T08:04:18;36.97;;;20.33;;
75939;SDS011;75809;44.872;20.642;2024-03-22T08:06:45;38.45;;;19.38;;
75939;SDS011;75809;44.872;20.642;2024-03-22T08:09:11;38.13;;;20.33;;
75939;SDS011;75809;44.872;20.642;2024-03-22T08:11:36;41.60;;;20.67;;
75939;SDS011;75809;44.872;20.642;2024-03-22T08:14:02;39.70;;;19.40;;
75939;SDS011;75809;44.872;20.642;2024-03-22T08:16:31;40.20;;;20.75;;
75939;SDS011;75809;44.872;20.642;2024-03-22T08:18:56;35.38;;;19.23;;
75939;SDS011;75809;44.872;20.642;2024-03-22T08:21:22;37.58;;;19.42;;
75939;SDS011;75809;44.872;20.642;2024-03-22T08:23:49;40.55;;;18.95;;
75939;SDS011;75809;44.872;20.642;2024-03-22T08:26:15;38.67;;;20.48;;
75939;SDS011;75809;44.872;20.642;2024-03-22T08:28:40;39.20;;;20.75;;
75939;SDS011;75809;44.872;20.642;2024-03-22T08:31:05;40.80;;;20.33;;
75939;SDS011;75809;44.872;20.642;2024-03-22T08:33:31;37.85;;;20.52;;
75939;SDS011;75809;44.872;20.642;2024-03-22T08:35:56;32.05;;;17.38;;
75939;SDS011;75809;44.872;20.642;2024-03-22T08:38:22;33.30;;;16.25;;
75939;SDS011;75809;44.872;20.642;2024-03-22T08:40:48;33.70;;;17.52;;
75939;SDS011;75809;44.872;20.642;2024-03-22T08:43:15;33.58;;;17.27;;
75939;SDS011;75809;44.872;20.642;2024-03-22T08:45:41;33.30;;;16.65;;
75939;SDS011;75809;44.872;20.642;2024-03-22T08:48:07;31.98;;;17.25;;
75939;SDS011;75809;44.872;20.642;2024-03-22T08:50:32;28.35;;;16.00;;
75939;SDS011;75809;44.872;20.642;2024-03-22T08:52:58;31.45;;;16.50;;
75939;SDS011;75809;44.872;20.642;2024-03-22T08:55:24;33.40;;;17.50;;
75939;SDS011;75809;44.872;20.642;2024-03-22T08:57:49;31.48;;;16.15;;
75939;SDS011;75809;44.872;20.642;2024-03-22T09:00:15;30.33;;;14.45;;
75939;SDS011;75809;44.872;20.642;2024-03-22T09:02:40;31.23;;;16.92;;
75939;SDS011;75809;44.872;20.642;2024-03-22T09:05:06;34.15;;;17.80;;
75939;SDS011;75809;44.872;20.642;2024-03-22T09:07:33;35.08;;;16.45;;
75939;SDS011;75809;44.872;20.642;2024-03-22T09:09:59;31.85;;;16.58;;
75939;SDS011;75809;44.872;20.642;2024-03-22T09:12:24;36.75;;;16.42;;
75939;SDS011;75809;44.872;20.642;2024-03-22T09:14:50;31.90;;;16.55;;
75939;SDS011;75809;44.872;20.642;2024-03-22T09:17:15;28.02;;;15.30;;
75939;SDS011;75809;44.872;20.642;2024-03-22T09:19:40;29.52;;;15.55;;
75939;SDS011;75809;44.872;20.642;2024-03-22T09:22:06;28.00;;;15.40;;
75939;SDS011;75809;44.872;20.642;2024-03-22T09:24:32;35.90;;;15.82;;
75939;SDS011;75809;44.872;20.642;2024-03-22T09:26:57;27.67;;;14.43;;
75939;SDS011;75809;44.872;20.642;2024-03-22T09:29:23;28.95;;;14.70;;
75939;SDS011;75809;44.872;20.642;2024-03-22T09:31:49;28.30;;;14.07;;
75939;SDS011;75809;44.872;20.642;2024-03-22T09:34:15;28.77;;;15.00;;
75939;SDS011;75809;44.872;20.642;2024-03-22T09:36:41;27.92;;;14.88;;
75939;SDS011;75809;44.872;20.642;2024-03-22T09:39:07;27.52;;;15.95;;
75939;SDS011;75809;44.872;20.642;2024-03-22T09:41:33;28.25;;;14.57;;
75939;SDS011;75809;44.872;20.642;2024-03-22T09:44:07;38.33;;;17.88;;
75939;SDS011;75809;44.872;20.642;2024-03-22T09:46:38;30.85;;;15.90;;
75939;SDS011;75809;44.872;20.642;2024-03-22T09:49:05;30.17;;;15.45;;
75939;SDS011;75809;44.872;20.642;2024-03-22T09:51:32;37.40;;;16.35;;
75939;SDS011;75809;44.872;20.642;2024-03-22T09:53:59;33.42;;;15.93;;
75939;SDS011;75809;44.872;20.642;2024-03-22T09:56:26;27.95;;;14.85;;
75939;SDS011;75809;44.872;20.642;2024-03-22T09:58:55;30.45;;;15.60;;
75939;SDS011;75809;44.872;20.642;2024-03-22T10:01:21;37.95;;;18.92;;
75939;SDS011;75809;44.872;20.642;2024-03-22T10:03:48;37.33;;;19.10;;
75939;SDS011;75809;44.872;20.642;2024-03-22T10:06:16;33.67;;;18.23;;
75939;SDS011;75809;44.872;20.642;2024-03-22T10:08:42;35.67;;;18.65;;
75939;SDS011;75809;44.872;20.642;2024-03-22T10:11:08;35.83;;;16.90;;
75939;SDS011;75809;44.872;20.642;2024-03-22T10:13:33;31.60;;;17.08;;
75939;SDS011;75809;44.872;20.642;2024-03-22T10:15:58;31.70;;;16.80;;
75939;SDS011;75809;44.872;20.642;2024-03-22T10:18:24;40.03;;;18.23;;
75939;SDS011;75809;44.872;20.642;2024-03-22T10:23:25;38.25;;;18.10;;
75939;SDS011;75809;44.872;20.642;2024-03-22T10:25:51;34.42;;;17.27;;
75939;SDS011;75809;44.872;20.642;2024-03-22T10:28:17;36.00;;;18.27;;
75939;SDS011;75809;44.872;20.642;2024-03-22T10:30:43;35.20;;;18.15;;
75939;SDS011;75809;44.872;20.642;2024-03-22T10:33:09;37.00;;;17.98;;
75939;SDS011;75809;44.872;20.642;2024-03-22T10:35:35;34.38;;;17.17;;
75939;SDS011;75809;44.872;20.642;2024-03-22T10:38:01;29.52;;;14.50;;
75939;SDS011;75809;44.872;20.642;2024-03-22T10:40:28;28.92;;;14.15;;
75939;SDS011;75809;44.872;20.642;2024-03-22T10:42:55;27.40;;;13.07;;
75939;SDS011;75809;44.872;20.642;2024-03-22T10:45:22;34.65;;;15.20;;
75939;SDS011;75809;44.872;20.642;2024-03-22T10:47:50;34.05;;;13.95;;
75939;SDS011;75809;44.872;20.642;2024-03-22T10:50:20;25.95;;;12.18;;
75939;SDS011;75809;44.872;20.642;2024-03-22T10:52:51;33.28;;;14.85;;
75939;SDS011;75809;44.872;20.642;2024-03-22T10:55:30;34.30;;;14.48;;
75939;SDS011;75809;44.872;20.642;2024-03-22T10:57:58;29.95;;;15.50;;
75939;SDS011;75809;44.872;20.642;2024-03-22T11:00:27;26.45;;;12.70;;
75939;SDS011;75809;44.872;20.642;2024-03-22T11:02:58;30.23;;;12.60;;
75939;SDS011;75809;44.872;20.642;2024-03-22T11:05:25;30.38;;;13.85;;
75939;SDS011;75809;44.872;20.642;2024-03-22T11:08:00;29.02;;;14.05;;
75939;SDS011;75809;44.872;20.642;2024-03-22T11:10:29;27.13;;;13.32;;
75939;SDS011;75809;44.872;20.642;2024-03-22T11:12:55;28.42;;;13.88;;
75939;SDS011;75809;44.872;20.642;2024-03-22T11:15:25;24.02;;;12.65;;
75939;SDS011;75809;44.872;20.642;2024-03-22T11:17:50;24.38;;;12.18;;
75939;SDS011;75809;44.872;20.642;2024-03-22T11:20:16;24.95;;;12.63;;
75939;SDS011;75809;44.872;20.642;2024-03-22T11:22:41;23.02;;;11.65;;
75939;SDS011;75809;44.872;20.642;2024-03-22T11:25:07;25.35;;;11.75;;
75939;SDS011;75809;44.872;20.642;2024-03-22T11:27:32;28.23;;;12.20;;
75939;SDS011;75809;44.872;20.642;2024-03-22T11:29:58;26.70;;;11.75;;
75939;SDS011;75809;44.872;20.642;2024-03-22T11:32:23;26.90;;;12.07;;
75939;SDS011;75809;44.872;20.642;2024-03-22T11:34:49;26.92;;;12.77;;
75939;SDS011;75809;44.872;20.642;2024-03-22T11:37:15;28.30;;;13.45;;
75939;SDS011;75809;44.872;20.642;2024-03-22T11:39:40;29.52;;;12.23;;
75939;SDS011;75809;44.872;20.642;2024-03-22T11:42:06;23.73;;;12.60;;
75939;SDS011;75809;44.872;20.642;2024-03-22T11:44:34;24.60;;;13.55;;
75939;SDS011;75809;44.872;20.642;2024-03-22T11:47:03;26.25;;;13.45;;
75939;SDS011;75809;44.872;20.642;2024-03-22T11:49:29;26.13;;;12.25;;
75939;SDS011;75809;44.872;20.642;2024-03-22T11:51:58;24.80;;;12.75;;
75939;SDS011;75809;44.872;20.642;2024-03-22T11:54:23;23.08;;;11.48;;
75939;SDS011;75809;44.872;20.642;2024-03-22T11:56:49;24.98;;;11.38;;
75939;SDS011;75809;44.872;20.642;2024-03-22T11:59:15;26.40;;;11.68;;
75939;SDS011;75809;44.872;20.642;2024-03-22T12:01:44;24.50;;;10.88;;
75939;SDS011;75809;44.872;20.642;2024-03-22T12:04:09;25.35;;;10.85;;
75939;SDS011;75809;44.872;20.642;2024-03-22T12:06:41;22.50;;;10.73;;
75939;SDS011;75809;44.872;20.642;2024-03-22T12:09:10;19.85;;;10.13;;
75939;SDS011;75809;44.872;20.642;2024-03-22T12:11:38;21.17;;;10.45;;
75939;SDS011;75809;44.872;20.642;2024-03-22T12:14:04;22.30;;;10.85;;
75939;SDS011;75809;44.872;20.642;2024-03-22T12:16:30;24.13;;;10.73;;
75939;SDS011;75809;44.872;20.642;2024-03-22T12:18:55;24.42;;;10.65;;
75939;SDS011;75809;44.872;20.642;2024-03-22T12:21:21;22.27;;;10.35;;
75939;SDS011;75809;44.872;20.642;2024-03-22T12:23:46;27.00;;;10.23;;
75939;SDS011;75809;44.872;20.642;2024-03-22T12:26:12;20.73;;;10.10;;
75939;SDS011;75809;44.872;20.642;2024-03-22T12:28:38;20.52;;;10.65;;
75939;SDS011;75809;44.872;20.642;2024-03-22T12:31:04;21.83;;;11.13;;
75939;SDS011;75809;44.872;20.642;2024-03-22T12:33:30;21.10;;;10.93;;
75939;SDS011;75809;44.872;20.642;2024-03-22T12:35:55;21.27;;;10.63;;
75939;SDS011;75809;44.872;20.642;2024-03-22T12:38:21;20.52;;;10.32;;
75939;SDS011;75809;44.872;20.642;2024-03-22T12:40:46;21.40;;;10.93;;
75939;SDS011;75809;44.872;20.642;2024-03-22T12:43:12;22.13;;;10.77;;
75939;SDS011;75809;44.872;20.642;2024-03-22T12:45:37;18.20;;;9.38;;
75939;SDS011;75809;44.872;20.642;2024-03-22T12:48:03;20.52;;;10.48;;
75939;SDS011;75809;44.872;20.642;2024-03-22T12:50:29;21.30;;;10.73;;
75939;SDS011;75809;44.872;20.642;2024-03-22T12:52:55;18.98;;;10.32;;
75939;SDS011;75809;44.872;20.642;2024-03-22T12:55:21;21.20;;;11.68;;
75939;SDS011;75809;44.872;20.642;2024-03-22T12:57:46;22.52;;;11.60;;
75939;SDS011;75809;44.872;20.642;2024-03-22T13:00:12;23.52;;;11.85;;
75939;SDS011;75809;44.872;20.642;2024-03-22T13:02:40;20.98;;;11.23;;
75939;SDS011;75809;44.872;20.642;2024-03-22T13:05:06;21.35;;;11.65;;
75939;SDS011;75809;44.872;20.642;2024-03-22T13:07:32;21.60;;;10.55;;
75939;SDS011;75809;44.872;20.642;2024-03-22T13:09:57;18.92;;;11.10;;
75939;SDS011;75809;44.872;20.642;2024-03-22T13:12:25;20.58;;;10.77;;
75939;SDS011;75809;44.872;20.642;2024-03-22T13:14:51;19.45;;;11.15;;
75939;SDS011;75809;44.872;20.642;2024-03-22T13:17:17;22.33;;;11.88;;
75939;SDS011;75809;44.872;20.642;2024-03-22T13:19:42;21.33;;;11.05;;
75939;SDS011;75809;44.872;20.642;2024-03-22T13:22:08;26.35;;;11.43;;
75939;SDS011;75809;44.872;20.642;2024-03-22T13:24:34;23.27;;;12.43;;
75939;SDS011;75809;44.872;20.642;2024-03-22T13:27:00;21.85;;;10.52;;
75939;SDS011;75809;44.872;20.642;2024-03-22T13:29:27;24.25;;;11.98;;
75939;SDS011;75809;44.872;20.642;2024-03-22T13:31:53;23.50;;;11.95;;
75939;SDS011;75809;44.872;20.642;2024-03-22T13:34:18;20.08;;;10.40;;
75939;SDS011;75809;44.872;20.642;2024-03-22T13:36:44;20.50;;;10.32;;
75939;SDS011;75809;44.872;20.642;2024-03-22T13:39:09;23.98;;;11.82;;
75939;SDS011;75809;44.872;20.642;2024-03-22T13:41:35;19.02;;;10.57;;
75939;SDS011;75809;44.872;20.642;2024-03-22T13:44:01;21.00;;;10.27;;
75939;SDS011;75809;44.872;20.642;2024-03-22T13:46:31;17.88;;;9.95;;
75939;SDS011;75809;44.872;20.642;2024-03-22T13:48:56;22.30;;;10.20;;
75939;SDS011;75809;44.872;20.642;2024-03-22T13:51:22;20.00;;;10.10;;
75939;SDS011;75809;44.872;20.642;2024-03-22T13:53:49;23.50;;;11.32;;
75939;SDS011;75809;44.872;20.642;2024-03-22T13:56:14;20.80;;;10.70;;
75939;SDS011;75809;44.872;20.642;2024-03-22T13:58:39;19.20;;;10.27;;
75939;SDS011;75809;44.872;20.642;2024-03-22T14:01:05;21.55;;;10.32;;
75939;SDS011;75809;44.872;20.642;2024-03-22T14:03:30;23.85;;;9.98;;
75939;SDS011;75809;44.872;20.642;2024-03-22T14:05:56;19.13;;;10.75;;